sensor_id;sensor_type;location;lat;lon;timestamp;P1;P2;P0
73825;PMS5003;64145;55.060;73.168;2024-01-27T00:01:11;0.00;0.00;0.00
73825;PMS5003;64145;55.060;73.168;2024-01-27T00:03:36;0.00;0.00;0.00
73825;PMS5003;64145;55.060;73.168;2024-01-27T00:06:02;0.00;0.00;0.00
73825;PMS5003;64145;55.060;73.168;2024-01-27T00:08:27;0.00;0.00;0.00
73825;PMS5003;64145;55.060;73.168;2024-01-27T00:10:53;0.00;0.00;0.00
73825;PMS5003;64145;55.060;73.168;2024-01-27T00:13:19;0.00;0.00;0.00
73825;PMS5003;64145;55.060;73.168;2024-01-27T00:15:44;0.00;0.00;0.00
73825;PMS5003;64145;55.060;73.168;2024-01-27T00:18:10;0.00;0.00;0.00
73825;PMS5003;64145;55.060;73.168;2024-01-27T00:20:36;0.00;0.00;0.00
73825;PMS5003;64145;55.060;73.168;2024-01-27T00:23:03;0.00;0.00;0.00
73825;PMS5003;64145;55.060;73.168;2024-01-27T00:25:28;0.00;0.00;0.00
73825;PMS5003;64145;55.060;73.168;2024-01-27T00:27:54;0.00;0.00;0.00
73825;PMS5003;64145;55.060;73.168;2024-01-27T00:30:19;0.00;0.00;0.00
73825;PMS5003;64145;55.060;73.168;2024-01-27T00:32:45;0.00;0.00;0.00
73825;PMS5003;64145;55.060;73.168;2024-01-27T00:35:11;0.00;0.00;0.00
73825;PMS5003;64145;55.060;73.168;2024-01-27T00:37:40;0.00;0.00;0.00
73825;PMS5003;64145;55.060;73.168;2024-01-27T00:40:15;0.00;0.00;0.00
73825;PMS5003;64145;55.060;73.168;2024-01-27T00:42:40;0.00;0.00;0.00
73825;PMS5003;64145;55.060;73.168;2024-01-27T00:45:06;0.00;0.00;0.00
73825;PMS5003;64145;55.060;73.168;2024-01-27T00:47:32;0.00;0.00;0.00
73825;PMS5003;64145;55.060;73.168;2024-01-27T00:49:57;0.00;0.00;0.00
73825;PMS5003;64145;55.060;73.168;2024-01-27T00:52:23;0.00;0.00;0.00
73825;PMS5003;64145;55.060;73.168;2024-01-27T00:54:49;1.00;0.00;0.00
73825;PMS5003;64145;55.060;73.168;2024-01-27T00:57:14;0.00;0.00;0.00
73825;PMS5003;64145;55.060;73.168;2024-01-27T00:59:40;0.00;0.00;0.00
73825;PMS5003;64145;55.060;73.168;2024-01-27T01:02:06;0.67;0.67;0.00
73825;PMS5003;64145;55.060;73.168;2024-01-27T01:04:32;0.00;0.00;0.00
73825;PMS5003;64145;55.060;73.168;2024-01-27T01:06:57;0.00;0.00;0.00
73825;PMS5003;64145;55.060;73.168;2024-01-27T01:09:23;0.00;0.00;0.00
73825;PMS5003;64145;55.060;73.168;2024-01-27T01:11:49;0.00;0.00;0.00
73825;PMS5003;64145;55.060;73.168;2024-01-27T01:14:14;1.00;1.00;1.00
73825;PMS5003;64145;55.060;73.168;2024-01-27T01:16:40;0.00;0.00;0.00
73825;PMS5003;64145;55.060;73.168;2024-01-27T01:19:06;0.00;0.00;0.00
73825;PMS5003;64145;55.060;73.168;2024-01-27T01:21:31;1.00;1.00;0.00
73825;PMS5003;64145;55.060;73.168;2024-01-27T01:23:57;0.00;0.00;0.00
73825;PMS5003;64145;55.060;73.168;2024-01-27T01:26:23;0.00;0.00;0.00
73825;PMS5003;64145;55.060;73.168;2024-01-27T01:28:49;2.00;2.00;0.00
73825;PMS5003;64145;55.060;73.168;2024-01-27T01:31:15;0.00;0.00;0.00
73825;PMS5003;64145;55.060;73.168;2024-01-27T01:33:41;1.00;1.00;1.00
73825;PMS5003;64145;55.060;73.168;2024-01-27T01:36:06;1.00;1.00;0.00
73825;PMS5003;64145;55.060;73.168;2024-01-27T01:38:32;0.00;0.00;0.00
73825;PMS5003;64145;55.060;73.168;2024-01-27T01:40:57;0.00;0.00;0.00
73825;PMS5003;64145;55.060;73.168;2024-01-27T01:43:23;0.00;0.00;0.00
73825;PMS5003;64145;55.060;73.168;2024-01-27T01:45:59;3.00;3.00;2.00
73825;PMS5003;64145;55.060;73.168;2024-01-27T01:48:25;4.00;4.00;1.50
73825;PMS5003;64145;55.060;73.168;2024-01-27T01:50:51;0.00;0.00;0.00
73825;PMS5003;64145;55.060;73.168;2024-01-27T01:53:17;0.00;0.00;0.00
73825;PMS5003;64145;55.060;73.168;2024-01-27T01:56:02;0.00;0.00;0.00
73825;PMS5003;64145;55.060;73.168;2024-01-27T01:58:28;0.00;0.00;0.00
73825;PMS5003;64145;55.060;73.168;2024-01-27T02:00:59;0.00;0.00;0.00
73825;PMS5003;64145;55.060;73.168;2024-01-27T02:03:25;0.00;0.00;0.00
73825;PMS5003;64145;55.060;73.168;2024-01-27T02:05:50;0.00;0.00;0.00
73825;PMS5003;64145;55.060;73.168;2024-01-27T02:08:17;0.00;0.00;0.00
73825;PMS5003;64145;55.060;73.168;2024-01-27T02:10:42;1.00;0.50;0.00
73825;PMS5003;64145;55.060;73.168;2024-01-27T02:15:44;0.00;0.00;0.00
73825;PMS5003;64145;55.060;73.168;2024-01-27T02:18:09;0.00;0.00;0.00
73825;PMS5003;64145;55.060;73.168;2024-01-27T02:20:35;0.00;0.00;0.00
73825;PMS5003;64145;55.060;73.168;2024-01-27T02:23:01;0.00;0.00;0.00
73825;PMS5003;64145;55.060;73.168;2024-01-27T02:25:30;0.00;0.00;0.00
73825;PMS5003;64145;55.060;73.168;2024-01-27T02:27:55;0.00;0.00;0.00
73825;PMS5003;64145;55.060;73.168;2024-01-27T02:30:21;0.00;0.00;0.00
73825;PMS5003;64145;55.060;73.168;2024-01-27T02:32:46;0.00;0.00;0.00
73825;PMS5003;64145;55.060;73.168;2024-01-27T02:35:12;0.00;0.00;0.00
73825;PMS5003;64145;55.060;73.168;2024-01-27T02:37:39;0.00;0.00;0.00
73825;PMS5003;64145;55.060;73.168;2024-01-27T02:40:06;0.00;0.00;0.00
73825;PMS5003;64145;55.060;73.168;2024-01-27T02:42:32;0.00;0.00;0.00
73825;PMS5003;64145;55.060;73.168;2024-01-27T02:44:58;0.00;0.00;0.00
73825;PMS5003;64145;55.060;73.168;2024-01-27T02:47:23;0.00;0.00;0.00
73825;PMS5003;64145;55.060;73.168;2024-01-27T02:49:49;0.00;0.00;0.00
73825;PMS5003;64145;55.060;73.168;2024-01-27T02:52:14;0.00;0.00;0.00
73825;PMS5003;64145;55.060;73.168;2024-01-27T02:54:40;0.00;0.00;0.00
73825;PMS5003;64145;55.060;73.168;2024-01-27T02:57:06;0.00;0.00;0.00
73825;PMS5003;64145;55.060;73.168;2024-01-27T02:59:31;4.00;3.00;2.00
73825;PMS5003;64145;55.060;73.168;2024-01-27T03:01:57;4.00;4.00;2.00
73825;PMS5003;64145;55.060;73.168;2024-01-27T03:04:22;1.00;1.00;0.00
73825;PMS5003;64145;55.060;73.168;2024-01-27T03:06:48;1.00;1.00;0.00
73825;PMS5003;64145;55.060;73.168;2024-01-27T03:09:14;1.33;1.33;0.33
73825;PMS5003;64145;55.060;73.168;2024-01-27T03:11:39;1.00;1.00;0.00
73825;PMS5003;64145;55.060;73.168;2024-01-27T03:14:05;2.00;2.00;0.00
73825;PMS5003;64145;55.060;73.168;2024-01-27T03:16:30;1.00;1.00;0.00
73825;PMS5003;64145;55.060;73.168;2024-01-27T03:18:56;1.50;1.50;0.00
73825;PMS5003;64145;55.060;73.168;2024-01-27T03:21:22;2.00;2.00;1.00
73825;PMS5003;64145;55.060;73.168;2024-01-27T03:23:47;5.00;4.00;1.00
73825;PMS5003;64145;55.060;73.168;2024-01-27T03:26:13;2.00;1.67;0.00
73825;PMS5003;64145;55.060;73.168;2024-01-27T03:28:38;2.00;2.00;1.00
73825;PMS5003;64145;55.060;73.168;2024-01-27T03:31:11;3.00;3.00;3.00
73825;PMS5003;64145;55.060;73.168;2024-01-27T03:33:36;2.00;2.00;1.00
73825;PMS5003;64145;55.060;73.168;2024-01-27T03:36:02;3.00;2.00;1.00
73825;PMS5003;64145;55.060;73.168;2024-01-27T03:38:28;2.00;2.00;0.00
73825;PMS5003;64145;55.060;73.168;2024-01-27T03:40:53;2.00;2.00;1.00
73825;PMS5003;64145;55.060;73.168;2024-01-27T03:43:19;3.00;2.00;1.00
73825;PMS5003;64145;55.060;73.168;2024-01-27T03:45:44;3.00;2.00;2.00
73825;PMS5003;64145;55.060;73.168;2024-01-27T03:48:10;1.50;0.50;0.00
73825;PMS5003;64145;55.060;73.168;2024-01-27T03:50:36;5.00;4.00;2.00
73825;PMS5003;64145;55.060;73.168;2024-01-27T03:53:01;0.50;0.50;0.00
73825;PMS5003;64145;55.060;73.168;2024-01-27T03:55:27;0.00;0.00;0.00
73825;PMS5003;64145;55.060;73.168;2024-01-27T03:57:52;0.00;0.00;0.00
73825;PMS5003;64145;55.060;73.168;2024-01-27T04:00:18;0.00;0.00;0.00
73825;PMS5003;64145;55.060;73.168;2024-01-27T04:02:43;5.00;3.50;0.00
73825;PMS5003;64145;55.060;73.168;2024-01-27T04:05:09;1.00;0.00;0.00
73825;PMS5003;64145;55.060;73.168;2024-01-27T04:07:35;0.00;0.00;0.00
73825;PMS5003;64145;55.060;73.168;2024-01-27T04:10:02;0.00;0.00;0.00
73825;PMS5003;64145;55.060;73.168;2024-01-27T04:12:27;1.00;0.67;0.00
73825;PMS5003;64145;55.060;73.168;2024-01-27T04:14:53;0.00;0.00;0.00
73825;PMS5003;64145;55.060;73.168;2024-01-27T04:17:19;2.00;2.00;0.67
73825;PMS5003;64145;55.060;73.168;2024-01-27T04:19:44;0.00;0.00;0.00
73825;PMS5003;64145;55.060;73.168;2024-01-27T04:22:10;0.00;0.00;0.00
73825;PMS5003;64145;55.060;73.168;2024-01-27T04:24:35;0.00;0.00;0.00
73825;PMS5003;64145;55.060;73.168;2024-01-27T04:27:01;0.00;0.00;0.00
73825;PMS5003;64145;55.060;73.168;2024-01-27T04:29:27;2.00;1.33;0.00
73825;PMS5003;64145;55.060;73.168;2024-01-27T04:31:53;0.00;0.00;0.00
73825;PMS5003;64145;55.060;73.168;2024-01-27T04:34:18;0.00;0.00;0.00
73825;PMS5003;64145;55.060;73.168;2024-01-27T04:36:44;2.00;2.00;2.00
73825;PMS5003;64145;55.060;73.168;2024-01-27T04:39:09;0.00;0.00;0.00
73825;PMS5003;64145;55.060;73.168;2024-01-27T04:41:40;7.00;7.00;7.00
73825;PMS5003;64145;55.060;73.168;2024-01-27T04:44:07;1.00;1.00;0.00
73825;PMS5003;64145;55.060;73.168;2024-01-27T04:46:32;0.00;0.00;0.00
73825;PMS5003;64145;55.060;73.168;2024-01-27T04:48:58;0.00;0.00;0.00
73825;PMS5003;64145;55.060;73.168;2024-01-27T04:51:23;0.00;0.00;0.00
73825;PMS5003;64145;55.060;73.168;2024-01-27T04:53:49;3.00;3.00;3.00
73825;PMS5003;64145;55.060;73.168;2024-01-27T04:56:15;1.67;1.33;0.33
73825;PMS5003;64145;55.060;73.168;2024-01-27T04:58:41;1.00;1.00;0.00
73825;PMS5003;64145;55.060;73.168;2024-01-27T05:01:06;0.00;0.00;0.00
73825;PMS5003;64145;55.060;73.168;2024-01-27T05:03:32;1.00;0.67;0.00
73825;PMS5003;64145;55.060;73.168;2024-01-27T05:05:57;2.00;1.00;0.00
73825;PMS5003;64145;55.060;73.168;2024-01-27T05:08:23;3.00;2.00;1.00
73825;PMS5003;64145;55.060;73.168;2024-01-27T05:10:49;0.00;0.00;0.00
73825;PMS5003;64145;55.060;73.168;2024-01-27T05:13:14;0.00;0.00;0.00
73825;PMS5003;64145;55.060;73.168;2024-01-27T05:15:40;0.00;0.00;0.00
73825;PMS5003;64145;55.060;73.168;2024-01-27T05:18:05;0.00;0.00;0.00
73825;PMS5003;64145;55.060;73.168;2024-01-27T05:20:31;0.00;0.00;0.00
73825;PMS5003;64145;55.060;73.168;2024-01-27T05:22:56;0.00;0.00;0.00
73825;PMS5003;64145;55.060;73.168;2024-01-27T05:25:22;2.00;1.00;0.00
73825;PMS5003;64145;55.060;73.168;2024-01-27T05:27:48;2.00;1.67;0.00
73825;PMS5003;64145;55.060;73.168;2024-01-27T05:30:13;0.33;0.33;0.00
73825;PMS5003;64145;55.060;73.168;2024-01-27T05:32:40;0.00;0.00;0.00
73825;PMS5003;64145;55.060;73.168;2024-01-27T05:35:06;2.00;2.00;0.00
73825;PMS5003;64145;55.060;73.168;2024-01-27T05:37:32;0.00;0.00;0.00
73825;PMS5003;64145;55.060;73.168;2024-01-27T05:39:57;1.00;0.00;0.00
73825;PMS5003;64145;55.060;73.168;2024-01-27T05:42:23;0.00;0.00;0.00
73825;PMS5003;64145;55.060;73.168;2024-01-27T05:45:00;2.00;2.00;0.00
73825;PMS5003;64145;55.060;73.168;2024-01-27T05:47:26;6.67;6.00;3.67
73825;PMS5003;64145;55.060;73.168;2024-01-27T05:49:51;5.50;5.00;2.00
73825;PMS5003;64145;55.060;73.168;2024-01-27T05:52:17;2.00;2.00;1.00
73825;PMS5003;64145;55.060;73.168;2024-01-27T05:54:42;5.00;4.00;1.00
73825;PMS5003;64145;55.060;73.168;2024-01-27T05:57:08;6.00;5.00;2.00
73825;PMS5003;64145;55.060;73.168;2024-01-27T05:59:33;8.00;7.00;3.00
73825;PMS5003;64145;55.060;73.168;2024-01-27T06:01:59;5.50;5.50;1.00
73825;PMS5003;64145;55.060;73.168;2024-01-27T06:04:24;9.00;7.67;2.67
73825;PMS5003;64145;55.060;73.168;2024-01-27T06:06:50;4.67;3.00;0.00
73825;PMS5003;64145;55.060;73.168;2024-01-27T06:09:16;7.00;5.00;2.00
73825;PMS5003;64145;55.060;73.168;2024-01-27T06:11:41;0.00;0.00;0.00
73825;PMS5003;64145;55.060;73.168;2024-01-27T06:14:07;0.00;0.00;0.00
73825;PMS5003;64145;55.060;73.168;2024-01-27T06:16:32;0.00;0.00;0.00
73825;PMS5003;64145;55.060;73.168;2024-01-27T06:18:58;0.00;0.00;0.00
73825;PMS5003;64145;55.060;73.168;2024-01-27T06:21:24;0.00;0.00;0.00
73825;PMS5003;64145;55.060;73.168;2024-01-27T06:23:54;0.00;0.00;0.00
73825;PMS5003;64145;55.060;73.168;2024-01-27T06:26:20;3.00;2.00;1.00
73825;PMS5003;64145;55.060;73.168;2024-01-27T06:28:46;0.00;0.00;0.00
73825;PMS5003;64145;55.060;73.168;2024-01-27T06:31:12;0.00;0.00;0.00
73825;PMS5003;64145;55.060;73.168;2024-01-27T06:33:39;1.00;1.00;0.00
73825;PMS5003;64145;55.060;73.168;2024-01-27T06:36:05;1.00;0.50;0.00
73825;PMS5003;64145;55.060;73.168;2024-01-27T06:38:31;0.00;0.00;0.00
73825;PMS5003;64145;55.060;73.168;2024-01-27T06:40:57;0.00;0.00;0.00
73825;PMS5003;64145;55.060;73.168;2024-01-27T06:43:22;0.00;0.00;0.00
73825;PMS5003;64145;55.060;73.168;2024-01-27T06:45:53;0.00;0.00;0.00
73825;PMS5003;64145;55.060;73.168;2024-01-27T06:48:19;0.00;0.00;0.00
73825;PMS5003;64145;55.060;73.168;2024-01-27T06:50:44;1.00;0.00;0.00
73825;PMS5003;64145;55.060;73.168;2024-01-27T06:53:10;0.00;0.00;0.00
73825;PMS5003;64145;55.060;73.168;2024-01-27T06:55:35;2.00;2.00;0.00
73825;PMS5003;64145;55.060;73.168;2024-01-27T06:58:01;1.00;1.00;0.00
73825;PMS5003;64145;55.060;73.168;2024-01-27T07:00:27;0.00;0.00;0.00
73825;PMS5003;64145;55.060;73.168;2024-01-27T07:02:52;0.00;0.00;0.00
73825;PMS5003;64145;55.060;73.168;2024-01-27T07:05:19;5.00;5.00;2.00
73825;PMS5003;64145;55.060;73.168;2024-01-27T07:07:45;0.33;0.00;0.00
73825;PMS5003;64145;55.060;73.168;2024-01-27T07:10:28;0.50;0.00;0.00
73825;PMS5003;64145;55.060;73.168;2024-01-27T07:12:54;1.33;1.00;0.00
73825;PMS5003;64145;55.060;73.168;2024-01-27T07:15:19;0.50;0.50;0.00
73825;PMS5003;64145;55.060;73.168;2024-01-27T07:17:46;0.00;0.00;0.00
73825;PMS5003;64145;55.060;73.168;2024-01-27T07:20:12;0.00;0.00;0.00
73825;PMS5003;64145;55.060;73.168;2024-01-27T07:22:38;0.00;0.00;0.00
73825;PMS5003;64145;55.060;73.168;2024-01-27T07:25:03;1.50;1.50;0.00
73825;PMS5003;64145;55.060;73.168;2024-01-27T07:27:29;3.00;3.00;0.00
73825;PMS5003;64145;55.060;73.168;2024-01-27T07:29:55;0.00;0.00;0.00
73825;PMS5003;64145;55.060;73.168;2024-01-27T07:32:21;0.00;0.00;0.00
73825;PMS5003;64145;55.060;73.168;2024-01-27T07:34:47;0.00;0.00;0.00
73825;PMS5003;64145;55.060;73.168;2024-01-27T07:37:13;0.00;0.00;0.00
73825;PMS5003;64145;55.060;73.168;2024-01-27T07:39:38;0.00;0.00;0.00
73825;PMS5003;64145;55.060;73.168;2024-01-27T07:42:04;0.50;0.00;0.00
73825;PMS5003;64145;55.060;73.168;2024-01-27T07:44:30;3.00;3.00;0.00
73825;PMS5003;64145;55.060;73.168;2024-01-27T07:46:55;2.00;2.00;1.00
73825;PMS5003;64145;55.060;73.168;2024-01-27T07:49:21;1.00;1.00;0.00
73825;PMS5003;64145;55.060;73.168;2024-01-27T07:51:53;0.00;0.00;0.00
73825;PMS5003;64145;55.060;73.168;2024-01-27T07:54:19;0.00;0.00;0.00
73825;PMS5003;64145;55.060;73.168;2024-01-27T07:56:44;1.00;1.00;0.00
73825;PMS5003;64145;55.060;73.168;2024-01-27T07:59:10;0.00;0.00;0.00
73825;PMS5003;64145;55.060;73.168;2024-01-27T08:01:39;1.00;0.00;0.00
73825;PMS5003;64145;55.060;73.168;2024-01-27T08:04:05;0.00;0.00;0.00
73825;PMS5003;64145;55.060;73.168;2024-01-27T08:06:30;0.00;0.00;0.00
73825;PMS5003;64145;55.060;73.168;2024-01-27T08:08:56;0.00;0.00;0.00
73825;PMS5003;64145;55.060;73.168;2024-01-27T08:11:22;0.00;0.00;0.00
73825;PMS5003;64145;55.060;73.168;2024-01-27T08:13:48;0.00;0.00;0.00
73825;PMS5003;64145;55.060;73.168;2024-01-27T08:16:13;0.00;0.00;0.00
73825;PMS5003;64145;55.060;73.168;2024-01-27T08:18:39;0.00;0.00;0.00
73825;PMS5003;64145;55.060;73.168;2024-01-27T08:21:07;0.00;0.00;0.00
73825;PMS5003;64145;55.060;73.168;2024-01-27T08:23:33;3.00;2.50;1.00
73825;PMS5003;64145;55.060;73.168;2024-01-27T08:25:59;1.00;1.00;0.00
73825;PMS5003;64145;55.060;73.168;2024-01-27T08:28:24;0.00;0.00;0.00
73825;PMS5003;64145;55.060;73.168;2024-01-27T08:30:50;3.00;2.00;0.00
73825;PMS5003;64145;55.060;73.168;2024-01-27T08:33:15;1.00;1.00;0.00
73825;PMS5003;64145;55.060;73.168;2024-01-27T08:35:41;1.00;1.00;0.00
73825;PMS5003;64145;55.060;73.168;2024-01-27T08:38:07;0.00;0.00;0.00
73825;PMS5003;64145;55.060;73.168;2024-01-27T08:40:34;2.00;1.00;0.00
73825;PMS5003;64145;55.060;73.168;2024-01-27T08:43:01;5.00;3.00;1.00
73825;PMS5003;64145;55.060;73.168;2024-01-27T08:45:26;2.50;2.00;0.00
73825;PMS5003;64145;55.060;73.168;2024-01-27T08:47:52;0.00;0.00;0.00
73825;PMS5003;64145;55.060;73.168;2024-01-27T08:50:18;4.00;3.00;2.00
73825;PMS5003;64145;55.060;73.168;2024-01-27T08:52:44;0.50;0.50;0.00
73825;PMS5003;64145;55.060;73.168;2024-01-27T08:55:09;1.00;1.00;0.00
73825;PMS5003;64145;55.060;73.168;2024-01-27T08:57:43;3.00;3.00;2.00
73825;PMS5003;64145;55.060;73.168;2024-01-27T09:00:09;0.00;0.00;0.00
73825;PMS5003;64145;55.060;73.168;2024-01-27T09:02:34;0.00;0.00;0.00
73825;PMS5003;64145;55.060;73.168;2024-01-27T09:05:00;1.00;1.00;0.00
73825;PMS5003;64145;55.060;73.168;2024-01-27T09:07:25;1.00;1.00;0.00
73825;PMS5003;64145;55.060;73.168;2024-01-27T09:09:51;0.00;0.00;0.00
73825;PMS5003;64145;55.060;73.168;2024-01-27T09:12:16;0.67;0.33;0.00
73825;PMS5003;64145;55.060;73.168;2024-01-27T09:14:45;0.00;0.00;0.00
73825;PMS5003;64145;55.060;73.168;2024-01-27T09:17:11;0.00;0.00;0.00
73825;PMS5003;64145;55.060;73.168;2024-01-27T09:19:37;0.00;0.00;0.00
73825;PMS5003;64145;55.060;73.168;2024-01-27T09:22:03;1.00;1.00;0.00
73825;PMS5003;64145;55.060;73.168;2024-01-27T09:24:29;0.00;0.00;0.00
73825;PMS5003;64145;55.060;73.168;2024-01-27T09:26:54;0.00;0.00;0.00
73825;PMS5003;64145;55.060;73.168;2024-01-27T09:29:20;0.00;0.00;0.00
73825;PMS5003;64145;55.060;73.168;2024-01-27T09:31:45;0.00;0.00;0.00
73825;PMS5003;64145;55.060;73.168;2024-01-27T09:34:11;0.00;0.00;0.00
73825;PMS5003;64145;55.060;73.168;2024-01-27T09:36:36;0.00;0.00;0.00
73825;PMS5003;64145;55.060;73.168;2024-01-27T09:39:02;1.00;0.50;0.00
73825;PMS5003;64145;55.060;73.168;2024-01-27T09:41:30;2.00;2.00;0.00
73825;PMS5003;64145;55.060;73.168;2024-01-27T09:43:57;3.00;2.00;1.00
73825;PMS5003;64145;55.060;73.168;2024-01-27T09:46:24;3.00;1.50;0.00
73825;PMS5003;64145;55.060;73.168;2024-01-27T09:48:50;5.00;4.00;1.00
73825;PMS5003;64145;55.060;73.168;2024-01-27T09:51:17;3.50;3.00;1.50
73825;PMS5003;64145;55.060;73.168;2024-01-27T09:53:42;1.00;1.00;0.00
73825;PMS5003;64145;55.060;73.168;2024-01-27T09:56:08;2.00;2.00;1.00
73825;PMS5003;64145;55.060;73.168;2024-01-27T09:58:34;3.00;3.00;1.00
73825;PMS5003;64145;55.060;73.168;2024-01-27T10:01:00;3.00;3.00;1.00
73825;PMS5003;64145;55.060;73.168;2024-01-27T10:03:35;1.50;1.50;0.00
73825;PMS5003;64145;55.060;73.168;2024-01-27T10:06:01;0.00;0.00;0.00
73825;PMS5003;64145;55.060;73.168;2024-01-27T10:08:27;0.00;0.00;0.00
73825;PMS5003;64145;55.060;73.168;2024-01-27T10:10:56;0.00;0.00;0.00
73825;PMS5003;64145;55.060;73.168;2024-01-27T10:13:22;0.00;0.00;0.00
73825;PMS5003;64145;55.060;73.168;2024-01-27T10:16:00;0.00;0.00;0.00
73825;PMS5003;64145;55.060;73.168;2024-01-27T10:18:26;1.00;1.00;0.00
73825;PMS5003;64145;55.060;73.168;2024-01-27T10:20:52;0.50;0.50;0.00
73825;PMS5003;64145;55.060;73.168;2024-01-27T10:23:17;2.00;1.00;0.00
73825;PMS5003;64145;55.060;73.168;2024-01-27T10:25:43;2.00;1.00;1.00
73825;PMS5003;64145;55.060;73.168;2024-01-27T10:28:09;1.50;1.00;0.00
73825;PMS5003;64145;55.060;73.168;2024-01-27T10:30:34;2.00;2.00;0.00
73825;PMS5003;64145;55.060;73.168;2024-01-27T10:33:01;2.00;1.00;0.00
73825;PMS5003;64145;55.060;73.168;2024-01-27T10:35:27;1.50;1.50;1.00
73825;PMS5003;64145;55.060;73.168;2024-01-27T10:37:53;1.00;1.00;0.00
73825;PMS5003;64145;55.060;73.168;2024-01-27T10:40:19;0.00;0.00;0.00
73825;PMS5003;64145;55.060;73.168;2024-01-27T10:42:45;0.00;0.00;0.00
73825;PMS5003;64145;55.060;73.168;2024-01-27T10:45:11;0.00;0.00;0.00
73825;PMS5003;64145;55.060;73.168;2024-01-27T10:47:36;1.00;0.00;0.00
73825;PMS5003;64145;55.060;73.168;2024-01-27T10:50:03;2.00;1.00;0.00
73825;PMS5003;64145;55.060;73.168;2024-01-27T10:52:34;0.00;0.00;0.00
73825;PMS5003;64145;55.060;73.168;2024-01-27T10:55:03;2.00;2.00;0.00
73825;PMS5003;64145;55.060;73.168;2024-01-27T10:57:32;1.00;1.00;0.00
73825;PMS5003;64145;55.060;73.168;2024-01-27T10:59:58;2.00;2.00;0.00
73825;PMS5003;64145;55.060;73.168;2024-01-27T11:02:25;3.00;2.50;1.00
73825;PMS5003;64145;55.060;73.168;2024-01-27T11:04:59;4.00;3.50;2.00
73825;PMS5003;64145;55.060;73.168;2024-01-27T11:07:25;6.50;6.00;3.00
73825;PMS5003;64145;55.060;73.168;2024-01-27T11:09:51;12.00;11.00;7.00
73825;PMS5003;64145;55.060;73.168;2024-01-27T11:12:19;23.00;20.00;12.00
73825;PMS5003;64145;55.060;73.168;2024-01-27T11:14:47;29.00;23.00;14.00
73825;PMS5003;64145;55.060;73.168;2024-01-27T11:17:12;24.00;18.50;11.50
73825;PMS5003;64145;55.060;73.168;2024-01-27T11:19:39;32.00;25.00;16.00
73825;PMS5003;64145;55.060;73.168;2024-01-27T11:22:05;17.50;15.50;8.50
73825;PMS5003;64145;55.060;73.168;2024-01-27T11:24:31;24.50;20.50;12.50
73825;PMS5003;64145;55.060;73.168;2024-01-27T11:27:03;17.00;15.50;10.00
73825;PMS5003;64145;55.060;73.168;2024-01-27T11:29:29;30.50;25.00;15.50
73825;PMS5003;64145;55.060;73.168;2024-01-27T11:31:57;32.00;26.00;17.00
73825;PMS5003;64145;55.060;73.168;2024-01-27T11:34:23;22.00;19.00;12.00
73825;PMS5003;64145;55.060;73.168;2024-01-27T11:36:48;16.00;14.50;11.00
73825;PMS5003;64145;55.060;73.168;2024-01-27T11:39:27;10.00;9.00;6.00
73825;PMS5003;64145;55.060;73.168;2024-01-27T11:41:52;3.00;3.00;1.00
73825;PMS5003;64145;55.060;73.168;2024-01-27T11:44:19;9.00;6.33;5.00
73825;PMS5003;64145;55.060;73.168;2024-01-27T11:46:45;7.00;6.33;5.67
73825;PMS5003;64145;55.060;73.168;2024-01-27T11:49:17;10.50;9.50;6.00
73825;PMS5003;64145;55.060;73.168;2024-01-27T11:51:42;10.00;8.00;5.00
73825;PMS5003;64145;55.060;73.168;2024-01-27T11:54:09;6.00;6.00;2.00
73825;PMS5003;64145;55.060;73.168;2024-01-27T11:56:34;10.00;9.00;5.00
73825;PMS5003;64145;55.060;73.168;2024-01-27T11:59:00;11.50;10.50;5.00
73825;PMS5003;64145;55.060;73.168;2024-01-27T12:01:25;8.00;8.00;4.00
73825;PMS5003;64145;55.060;73.168;2024-01-27T12:03:51;6.67;6.00;1.33
73825;PMS5003;64145;55.060;73.168;2024-01-27T12:06:17;3.00;2.00;1.00
73825;PMS5003;64145;55.060;73.168;2024-01-27T12:08:43;1.33;1.00;0.00
73825;PMS5003;64145;55.060;73.168;2024-01-27T12:11:15;0.00;0.00;0.00
73825;PMS5003;64145;55.060;73.168;2024-01-27T12:14:00;3.33;3.33;1.33
73825;PMS5003;64145;55.060;73.168;2024-01-27T12:16:33;9.67;9.00;6.00
73825;PMS5003;64145;55.060;73.168;2024-01-27T12:18:59;4.67;3.67;2.00
73825;PMS5003;64145;55.060;73.168;2024-01-27T12:21:25;6.00;5.00;3.00
73825;PMS5003;64145;55.060;73.168;2024-01-27T12:23:54;5.00;5.00;2.00
73825;PMS5003;64145;55.060;73.168;2024-01-27T12:26:20;3.00;2.00;0.00
73825;PMS5003;64145;55.060;73.168;2024-01-27T12:28:47;2.00;2.00;1.00
73825;PMS5003;64145;55.060;73.168;2024-01-27T12:31:33;1.33;1.00;0.00
73825;PMS5003;64145;55.060;73.168;2024-01-27T12:33:59;2.00;2.00;0.00
73825;PMS5003;64145;55.060;73.168;2024-01-27T12:36:39;1.33;1.00;0.00
73825;PMS5003;64145;55.060;73.168;2024-01-27T12:39:05;0.00;0.00;0.00
73825;PMS5003;64145;55.060;73.168;2024-01-27T12:41:30;0.00;0.00;0.00
73825;PMS5003;64145;55.060;73.168;2024-01-27T12:43:59;0.00;0.00;0.00
73825;PMS5003;64145;55.060;73.168;2024-01-27T12:46:24;0.00;0.00;0.00
73825;PMS5003;64145;55.060;73.168;2024-01-27T12:49:00;0.00;0.00;0.00
73825;PMS5003;64145;55.060;73.168;2024-01-27T12:51:26;0.00;0.00;0.00
73825;PMS5003;64145;55.060;73.168;2024-01-27T12:53:51;0.00;0.00;0.00
73825;PMS5003;64145;55.060;73.168;2024-01-27T12:56:24;1.50;1.00;0.50
73825;PMS5003;64145;55.060;73.168;2024-01-27T12:58:50;1.00;0.00;0.00
73825;PMS5003;64145;55.060;73.168;2024-01-27T13:01:16;0.00;0.00;0.00
73825;PMS5003;64145;55.060;73.168;2024-01-27T13:03:41;0.00;0.00;0.00
73825;PMS5003;64145;55.060;73.168;2024-01-27T13:06:07;1.00;1.00;0.00
73825;PMS5003;64145;55.060;73.168;2024-01-27T13:08:46;2.00;1.33;0.00
73825;PMS5003;64145;55.060;73.168;2024-01-27T13:11:11;2.33;1.33;0.00
73825;PMS5003;64145;55.060;73.168;2024-01-27T13:13:42;1.00;0.33;0.00
73825;PMS5003;64145;55.060;73.168;2024-01-27T13:16:08;0.00;0.00;0.00
73825;PMS5003;64145;55.060;73.168;2024-01-27T13:18:34;1.00;1.00;0.00
73825;PMS5003;64145;55.060;73.168;2024-01-27T13:20:59;0.00;0.00;0.00
73825;PMS5003;64145;55.060;73.168;2024-01-27T13:23:25;0.00;0.00;0.00
73825;PMS5003;64145;55.060;73.168;2024-01-27T13:25:51;0.00;0.00;0.00
73825;PMS5003;64145;55.060;73.168;2024-01-27T13:28:17;2.00;2.00;1.50
73825;PMS5003;64145;55.060;73.168;2024-01-27T13:30:43;3.50;2.50;0.00
73825;PMS5003;64145;55.060;73.168;2024-01-27T13:33:08;0.00;0.00;0.00
73825;PMS5003;64145;55.060;73.168;2024-01-27T13:35:34;0.33;0.00;0.00
73825;PMS5003;64145;55.060;73.168;2024-01-27T13:37:59;0.00;0.00;0.00
73825;PMS5003;64145;55.060;73.168;2024-01-27T13:40:29;0.00;0.00;0.00
73825;PMS5003;64145;55.060;73.168;2024-01-27T13:42:55;0.00;0.00;0.00
73825;PMS5003;64145;55.060;73.168;2024-01-27T13:45:20;0.00;0.00;0.00
73825;PMS5003;64145;55.060;73.168;2024-01-27T13:47:57;0.50;0.50;0.00
73825;PMS5003;64145;55.060;73.168;2024-01-27T13:50:23;0.00;0.00;0.00
73825;PMS5003;64145;55.060;73.168;2024-01-27T13:52:51;0.00;0.00;0.00
73825;PMS5003;64145;55.060;73.168;2024-01-27T13:55:16;0.00;0.00;0.00
73825;PMS5003;64145;55.060;73.168;2024-01-27T13:57:43;0.00;0.00;0.00
73825;PMS5003;64145;55.060;73.168;2024-01-27T14:00:10;0.00;0.00;0.00
73825;PMS5003;64145;55.060;73.168;2024-01-27T14:02:35;0.00;0.00;0.00
73825;PMS5003;64145;55.060;73.168;2024-01-27T14:05:01;0.00;0.00;0.00
73825;PMS5003;64145;55.060;73.168;2024-01-27T14:07:27;1.00;1.00;1.00